sensor_id;sensor_type;location;lat;lon;timestamp;P1;durP1;ratioP1;P2;durP2;ratioP2
15764;SDS011;7983;50.744;7.086;2023-08-31T00:01:49;4.38;;;1.95;;
15764;SDS011;7983;50.744;7.086;2023-08-31T00:04:15;3.20;;;2.08;;
15764;SDS011;7983;50.744;7.086;2023-08-31T00:06:41;3.63;;;2.13;;
15764;SDS011;7983;50.744;7.086;2023-08-31T00:09:07;2.63;;;1.80;;
15764;SDS011;7983;50.744;7.086;2023-08-31T00:11:36;2.25;;;1.73;;
15764;SDS011;7983;50.744;7.086;2023-08-31T00:14:05;2.88;;;2.08;;
15764;SDS011;7983;50.744;7.086;2023-08-31T00:16:32;2.03;;;1.70;;
15764;SDS011;7983;50.744;7.086;2023-08-31T00:18:58;3.88;;;1.80;;
15764;SDS011;7983;50.744;7.086;2023-08-31T00:21:27;3.70;;;1.80;;
15764;SDS011;7983;50.744;7.086;2023-08-31T00:23:58;4.13;;;2.13;;
15764;SDS011;7983;50.744;7.086;2023-08-31T00:26:25;1.95;;;1.63;;
15764;SDS011;7983;50.744;7.086;2023-08-31T00:28:51;3.58;;;1.98;;
15764;SDS011;7983;50.744;7.086;2023-08-31T00:31:19;2.42;;;1.85;;
15764;SDS011;7983;50.744;7.086;2023-08-31T00:33:46;2.85;;;1.77;;
15764;SDS011;7983;50.744;7.086;2023-08-31T00:36:13;2.40;;;1.90;;
15764;SDS011;7983;50.744;7.086;2023-08-31T00:38:45;2.25;;;1.75;;
15764;SDS011;7983;50.744;7.086;2023-08-31T00:41:15;4.35;;;2.10;;
15764;SDS011;7983;50.744;7.086;2023-08-31T00:43:41;2.63;;;2.00;;
15764;SDS011;7983;50.744;7.086;2023-08-31T00:46:07;3.42;;;2.00;;
15764;SDS011;7983;50.744;7.086;2023-08-31T00:48:34;3.55;;;1.67;;
15764;SDS011;7983;50.744;7.086;2023-08-31T00:51:02;3.78;;;1.75;;
15764;SDS011;7983;50.744;7.086;2023-08-31T00:53:29;3.92;;;1.60;;
15764;SDS011;7983;50.744;7.086;2023-08-31T00:55:55;2.53;;;1.60;;
15764;SDS011;7983;50.744;7.086;2023-08-31T00:58:21;2.08;;;1.70;;
15764;SDS011;7983;50.744;7.086;2023-08-31T01:03:41;3.38;;;1.70;;
15764;SDS011;7983;50.744;7.086;2023-08-31T01:08:50;2.70;;;1.73;;
15764;SDS011;7983;50.744;7.086;2023-08-31T01:14:31;2.08;;;1.60;;
15764;SDS011;7983;50.744;7.086;2023-08-31T01:17:10;1.98;;;1.55;;
15764;SDS011;7983;50.744;7.086;2023-08-31T01:22:30;2.70;;;1.77;;
15764;SDS011;7983;50.744;7.086;2023-08-31T01:25:15;2.08;;;1.60;;
15764;SDS011;7983;50.744;7.086;2023-08-31T01:27:41;3.05;;;1.80;;
15764;SDS011;7983;50.744;7.086;2023-08-31T01:30:10;3.67;;;1.85;;
15764;SDS011;7983;50.744;7.086;2023-08-31T01:32:36;1.95;;;1.55;;
15764;SDS011;7983;50.744;7.086;2023-08-31T01:35:02;2.22;;;1.92;;
15764;SDS011;7983;50.744;7.086;2023-08-31T01:40:23;3.20;;;1.70;;
15764;SDS011;7983;50.744;7.086;2023-08-31T01:42:57;3.03;;;1.92;;
15764;SDS011;7983;50.744;7.086;2023-08-31T01:45:26;2.75;;;1.80;;
15764;SDS011;7983;50.744;7.086;2023-08-31T01:47:52;2.47;;;1.83;;
15764;SDS011;7983;50.744;7.086;2023-08-31T01:50:18;4.03;;;1.83;;
15764;SDS011;7983;50.744;7.086;2023-08-31T01:52:45;2.13;;;1.73;;
15764;SDS011;7983;50.744;7.086;2023-08-31T01:55:13;2.17;;;1.63;;
15764;SDS011;7983;50.744;7.086;2023-08-31T01:57:41;2.95;;;1.75;;
15764;SDS011;7983;50.744;7.086;2023-08-31T02:00:09;3.53;;;1.67;;
15764;SDS011;7983;50.744;7.086;2023-08-31T02:02:36;2.72;;;1.77;;
15764;SDS011;7983;50.744;7.086;2023-08-31T02:05:02;3.22;;;1.83;;
15764;SDS011;7983;50.744;7.086;2023-08-31T02:07:35;1.98;;;1.77;;
15764;SDS011;7983;50.744;7.086;2023-08-31T02:10:01;2.22;;;1.60;;
15764;SDS011;7983;50.744;7.086;2023-08-31T02:12:26;1.98;;;1.70;;
15764;SDS011;7983;50.744;7.086;2023-08-31T02:14:54;1.63;;;1.52;;
15764;SDS011;7983;50.744;7.086;2023-08-31T02:17:20;3.13;;;1.83;;
15764;SDS011;7983;50.744;7.086;2023-08-31T02:19:46;2.08;;;1.88;;
15764;SDS011;7983;50.744;7.086;2023-08-31T02:22:11;2.53;;;1.90;;
15764;SDS011;7983;50.744;7.086;2023-08-31T02:24:37;1.95;;;1.70;;
15764;SDS011;7983;50.744;7.086;2023-08-31T02:27:05;2.05;;;1.83;;
15764;SDS011;7983;50.744;7.086;2023-08-31T02:29:30;2.53;;;1.80;;
15764;SDS011;7983;50.744;7.086;2023-08-31T02:31:59;2.28;;;1.73;;
15764;SDS011;7983;50.744;7.086;2023-08-31T02:34:28;2.88;;;1.90;;
15764;SDS011;7983;50.744;7.086;2023-08-31T02:36:54;3.05;;;1.92;;
15764;SDS011;7983;50.744;7.086;2023-08-31T02:39:20;2.35;;;1.90;;
15764;SDS011;7983;50.744;7.086;2023-08-31T02:41:48;2.80;;;1.80;;
15764;SDS011;7983;50.744;7.086;2023-08-31T02:44:13;2.83;;;1.95;;
15764;SDS011;7983;50.744;7.086;2023-08-31T02:46:39;1.95;;;1.75;;
15764;SDS011;7983;50.744;7.086;2023-08-31T02:49:07;2.00;;;1.80;;
15764;SDS011;7983;50.744;7.086;2023-08-31T02:51:33;2.08;;;1.60;;
15764;SDS011;7983;50.744;7.086;2023-08-31T02:53:58;2.28;;;1.70;;
15764;SDS011;7983;50.744;7.086;2023-08-31T02:56:28;2.15;;;1.80;;
15764;SDS011;7983;50.744;7.086;2023-08-31T02:58:58;2.53;;;1.75;;
15764;SDS011;7983;50.744;7.086;2023-08-31T03:01:26;2.45;;;1.80;;
15764;SDS011;7983;50.744;7.086;2023-08-31T03:03:57;2.33;;;1.85;;
15764;SDS011;7983;50.744;7.086;2023-08-31T03:06:23;2.03;;;1.83;;
15764;SDS011;7983;50.744;7.086;2023-08-31T03:08:51;2.00;;;1.73;;
15764;SDS011;7983;50.744;7.086;2023-08-31T03:11:17;2.63;;;1.92;;
15764;SDS011;7983;50.744;7.086;2023-08-31T03:13:42;1.95;;;1.75;;
15764;SDS011;7983;50.744;7.086;2023-08-31T03:16:08;3.13;;;1.63;;
15764;SDS011;7983;50.744;7.086;2023-08-31T03:18:33;2.83;;;1.80;;
15764;SDS011;7983;50.744;7.086;2023-08-31T03:20:59;2.25;;;1.80;;
15764;SDS011;7983;50.744;7.086;2023-08-31T03:23:28;3.90;;;2.10;;
15764;SDS011;7983;50.744;7.086;2023-08-31T03:25:54;3.30;;;1.98;;
15764;SDS011;7983;50.744;7.086;2023-08-31T03:28:20;2.03;;;1.80;;
15764;SDS011;7983;50.744;7.086;2023-08-31T03:30:46;2.35;;;1.90;;
15764;SDS011;7983;50.744;7.086;2023-08-31T03:33:19;3.00;;;2.28;;
15764;SDS011;7983;50.744;7.086;2023-08-31T03:35:47;2.60;;;2.13;;
15764;SDS011;7983;50.744;7.086;2023-08-31T03:38:12;2.30;;;2.10;;
15764;SDS011;7983;50.744;7.086;2023-08-31T03:40:41;2.72;;;2.25;;
15764;SDS011;7983;50.744;7.086;2023-08-31T03:43:06;2.42;;;2.08;;
15764;SDS011;7983;50.744;7.086;2023-08-31T03:45:34;2.70;;;2.15;;
15764;SDS011;7983;50.744;7.086;2023-08-31T03:48:00;3.53;;;2.05;;
15764;SDS011;7983;50.744;7.086;2023-08-31T03:50:25;2.80;;;2.00;;
15764;SDS011;7983;50.744;7.086;2023-08-31T03:52:53;2.85;;;2.33;;
15764;SDS011;7983;50.744;7.086;2023-08-31T03:55:21;3.17;;;2.30;;
15764;SDS011;7983;50.744;7.086;2023-08-31T03:57:46;5.32;;;2.45;;
15764;SDS011;7983;50.744;7.086;2023-08-31T04:00:12;4.15;;;2.60;;
15764;SDS011;7983;50.744;7.086;2023-08-31T04:02:44;2.30;;;2.10;;
15764;SDS011;7983;50.744;7.086;2023-08-31T04:05:12;2.80;;;2.35;;
15764;SDS011;7983;50.744;7.086;2023-08-31T04:07:40;3.30;;;2.60;;
15764;SDS011;7983;50.744;7.086;2023-08-31T04:10:08;3.10;;;2.22;;
15764;SDS011;7983;50.744;7.086;2023-08-31T04:12:36;2.05;;;1.80;;
15764;SDS011;7983;50.744;7.086;2023-08-31T04:15:04;2.25;;;2.05;;
15764;SDS011;7983;50.744;7.086;2023-08-31T04:17:30;2.80;;;2.17;;
15764;SDS011;7983;50.744;7.086;2023-08-31T04:19:56;3.00;;;2.17;;
15764;SDS011;7983;50.744;7.086;2023-08-31T04:22:24;2.30;;;2.10;;
15764;SDS011;7983;50.744;7.086;2023-08-31T04:24:54;2.55;;;1.95;;
15764;SDS011;7983;50.744;7.086;2023-08-31T04:27:24;3.47;;;2.03;;
15764;SDS011;7983;50.744;7.086;2023-08-31T04:29:52;3.17;;;2.00;;
15764;SDS011;7983;50.744;7.086;2023-08-31T04:32:18;2.75;;;2.08;;
15764;SDS011;7983;50.744;7.086;2023-08-31T04:34:46;3.53;;;2.30;;
15764;SDS011;7983;50.744;7.086;2023-08-31T04:37:16;3.15;;;2.22;;
15764;SDS011;7983;50.744;7.086;2023-08-31T04:39:48;3.97;;;2.35;;
15764;SDS011;7983;50.744;7.086;2023-08-31T04:42:16;3.63;;;2.15;;
15764;SDS011;7983;50.744;7.086;2023-08-31T04:44:43;2.38;;;2.15;;
15764;SDS011;7983;50.744;7.086;2023-08-31T04:47:10;4.07;;;2.30;;
15764;SDS011;7983;50.744;7.086;2023-08-31T04:49:38;2.30;;;2.10;;
15764;SDS011;7983;50.744;7.086;2023-08-31T04:52:05;3.17;;;2.08;;
15764;SDS011;7983;50.744;7.086;2023-08-31T04:54:31;2.40;;;2.20;;
15764;SDS011;7983;50.744;7.086;2023-08-31T04:56:57;3.60;;;2.17;;
15764;SDS011;7983;50.744;7.086;2023-08-31T04:59:25;2.33;;;2.13;;
15764;SDS011;7983;50.744;7.086;2023-08-31T05:01:50;3.97;;;2.30;;
15764;SDS011;7983;50.744;7.086;2023-08-31T05:04:16;3.55;;;1.90;;
15764;SDS011;7983;50.744;7.086;2023-08-31T05:06:42;3.35;;;2.50;;
15764;SDS011;7983;50.744;7.086;2023-08-31T05:09:07;4.63;;;2.33;;
15764;SDS011;7983;50.744;7.086;2023-08-31T05:11:38;2.35;;;2.15;;
15764;SDS011;7983;50.744;7.086;2023-08-31T05:14:05;3.17;;;2.15;;
15764;SDS011;7983;50.744;7.086;2023-08-31T05:16:31;4.25;;;2.17;;
15764;SDS011;7983;50.744;7.086;2023-08-31T05:18:56;4.20;;;2.28;;
15764;SDS011;7983;50.744;7.086;2023-08-31T05:21:22;3.72;;;2.10;;
15764;SDS011;7983;50.744;7.086;2023-08-31T05:23:48;2.17;;;1.85;;
15764;SDS011;7983;50.744;7.086;2023-08-31T05:26:13;3.10;;;2.15;;
15764;SDS011;7983;50.744;7.086;2023-08-31T05:28:41;3.45;;;2.20;;
15764;SDS011;7983;50.744;7.086;2023-08-31T05:31:08;3.80;;;2.45;;
15764;SDS011;7983;50.744;7.086;2023-08-31T05:33:36;2.92;;;2.28;;
15764;SDS011;7983;50.744;7.086;2023-08-31T05:36:01;3.13;;;2.28;;
15764;SDS011;7983;50.744;7.086;2023-08-31T05:38:28;3.25;;;2.28;;
15764;SDS011;7983;50.744;7.086;2023-08-31T05:40:54;3.75;;;2.22;;
15764;SDS011;7983;50.744;7.086;2023-08-31T05:43:35;3.65;;;2.15;;
15764;SDS011;7983;50.744;7.086;2023-08-31T05:46:01;2.78;;;2.45;;
15764;SDS011;7983;50.744;7.086;2023-08-31T05:48:27;2.85;;;2.22;;
15764;SDS011;7983;50.744;7.086;2023-08-31T05:50:53;3.45;;;2.40;;
15764;SDS011;7983;50.744;7.086;2023-08-31T05:53:20;2.70;;;1.83;;
15764;SDS011;7983;50.744;7.086;2023-08-31T05:55:46;2.83;;;1.95;;
15764;SDS011;7983;50.744;7.086;2023-08-31T05:58:14;2.35;;;1.83;;
15764;SDS011;7983;50.744;7.086;2023-08-31T06:00:39;1.88;;;1.77;;
15764;SDS011;7983;50.744;7.086;2023-08-31T06:03:05;2.58;;;1.90;;
15764;SDS011;7983;50.744;7.086;2023-08-31T06:05:31;2.08;;;1.75;;
15764;SDS011;7983;50.744;7.086;2023-08-31T06:07:57;2.95;;;2.05;;
15764;SDS011;7983;50.744;7.086;2023-08-31T06:10:25;3.25;;;1.90;;
15764;SDS011;7983;50.744;7.086;2023-08-31T06:12:54;3.72;;;1.80;;
15764;SDS011;7983;50.744;7.086;2023-08-31T06:15:19;2.53;;;1.67;;
15764;SDS011;7983;50.744;7.086;2023-08-31T06:17:45;3.60;;;1.80;;
15764;SDS011;7983;50.744;7.086;2023-08-31T06:20:13;1.88;;;1.67;;
15764;SDS011;7983;50.744;7.086;2023-08-31T06:22:39;1.90;;;1.60;;
15764;SDS011;7983;50.744;7.086;2023-08-31T06:25:04;1.75;;;1.60;;
15764;SDS011;7983;50.744;7.086;2023-08-31T06:27:30;3.63;;;1.73;;
15764;SDS011;7983;50.744;7.086;2023-08-31T06:29:58;4.65;;;2.00;;
15764;SDS011;7983;50.744;7.086;2023-08-31T06:32:24;2.67;;;1.75;;
15764;SDS011;7983;50.744;7.086;2023-08-31T06:34:49;2.60;;;1.70;;
15764;SDS011;7983;50.744;7.086;2023-08-31T06:37:17;2.10;;;1.65;;
15764;SDS011;7983;50.744;7.086;2023-08-31T06:39:43;3.45;;;1.90;;
15764;SDS011;7983;50.744;7.086;2023-08-31T06:42:08;5.78;;;3.47;;
15764;SDS011;7983;50.744;7.086;2023-08-31T06:44:34;3.78;;;2.53;;
15764;SDS011;7983;50.744;7.086;2023-08-31T06:47:00;2.03;;;1.52;;
15764;SDS011;7983;50.744;7.086;2023-08-31T06:49:28;4.10;;;1.90;;
15764;SDS011;7983;50.744;7.086;2023-08-31T06:51:57;4.85;;;1.63;;
15764;SDS011;7983;50.744;7.086;2023-08-31T06:54:25;3.67;;;1.65;;
15764;SDS011;7983;50.744;7.086;2023-08-31T06:56:53;2.53;;;1.50;;
15764;SDS011;7983;50.744;7.086;2023-08-31T06:59:19;3.47;;;2.28;;
15764;SDS011;7983;50.744;7.086;2023-08-31T07:01:47;2.35;;;1.63;;
15764;SDS011;7983;50.744;7.086;2023-08-31T07:04:12;2.78;;;1.52;;
15764;SDS011;7983;50.744;7.086;2023-08-31T07:06:38;1.70;;;1.45;;
15764;SDS011;7983;50.744;7.086;2023-08-31T07:09:04;2.80;;;1.50;;
15764;SDS011;7983;50.744;7.086;2023-08-31T07:11:31;2.22;;;1.60;;
15764;SDS011;7983;50.744;7.086;2023-08-31T07:13:57;2.75;;;1.65;;
15764;SDS011;7983;50.744;7.086;2023-08-31T07:16:22;4.75;;;1.73;;
15764;SDS011;7983;50.744;7.086;2023-08-31T07:18:48;4.20;;;1.90;;
15764;SDS011;7983;50.744;7.086;2023-08-31T07:21:13;3.70;;;1.70;;
15764;SDS011;7983;50.744;7.086;2023-08-31T07:23:39;2.30;;;1.60;;
15764;SDS011;7983;50.744;7.086;2023-08-31T07:26:07;2.55;;;1.40;;
15764;SDS011;7983;50.744;7.086;2023-08-31T07:28:32;2.30;;;1.40;;
15764;SDS011;7983;50.744;7.086;2023-08-31T07:31:02;2.35;;;1.40;;
15764;SDS011;7983;50.744;7.086;2023-08-31T07:33:30;4.07;;;1.50;;
15764;SDS011;7983;50.744;7.086;2023-08-31T07:36:02;2.10;;;1.40;;
15764;SDS011;7983;50.744;7.086;2023-08-31T07:38:29;3.17;;;1.42;;
15764;SDS011;7983;50.744;7.086;2023-08-31T07:40:58;1.80;;;1.20;;
15764;SDS011;7983;50.744;7.086;2023-08-31T07:43:27;2.28;;;1.42;;
15764;SDS011;7983;50.744;7.086;2023-08-31T07:45:52;3.67;;;1.50;;
15764;SDS011;7983;50.744;7.086;2023-08-31T07:48:19;2.50;;;1.50;;
15764;SDS011;7983;50.744;7.086;2023-08-31T07:50:46;3.95;;;1.60;;
15764;SDS011;7983;50.744;7.086;2023-08-31T07:53:13;2.15;;;1.33;;
15764;SDS011;7983;50.744;7.086;2023-08-31T07:55:39;3.28;;;1.35;;
15764;SDS011;7983;50.744;7.086;2023-08-31T07:58:05;3.00;;;1.50;;
15764;SDS011;7983;50.744;7.086;2023-08-31T08:00:31;3.00;;;1.63;;
15764;SDS011;7983;50.744;7.086;2023-08-31T08:02:57;2.78;;;1.30;;
15764;SDS011;7983;50.744;7.086;2023-08-31T08:05:22;1.77;;;1.20;;
15764;SDS011;7983;50.744;7.086;2023-08-31T08:07:48;3.63;;;1.42;;
15764;SDS011;7983;50.744;7.086;2023-08-31T08:10:13;2.78;;;1.40;;
15764;SDS011;7983;50.744;7.086;2023-08-31T08:12:42;1.60;;;0.93;;
15764;SDS011;7983;50.744;7.086;2023-08-31T08:15:11;2.80;;;1.08;;
15764;SDS011;7983;50.744;7.086;2023-08-31T08:17:39;2.90;;;1.25;;
15764;SDS011;7983;50.744;7.086;2023-08-31T08:20:07;2.92;;;1.20;;
15764;SDS011;7983;50.744;7.086;2023-08-31T08:22:38;2.28;;;1.08;;
15764;SDS011;7983;50.744;7.086;2023-08-31T08:25:04;5.47;;;1.30;;
15764;SDS011;7983;50.744;7.086;2023-08-31T08:27:31;2.17;;;1.10;;
15764;SDS011;7983;50.744;7.086;2023-08-31T08:29:58;2.40;;;1.30;;
15764;SDS011;7983;50.744;7.086;2023-08-31T08:32:26;1.67;;;0.98;;
15764;SDS011;7983;50.744;7.086;2023-08-31T08:34:51;1.65;;;1.13;;
15764;SDS011;7983;50.744;7.086;2023-08-31T08:37:17;10.48;;;1.10;;
15764;SDS011;7983;50.744;7.086;2023-08-31T08:39:49;2.05;;;1.10;;
15764;SDS011;7983;50.744;7.086;2023-08-31T08:42:15;2.88;;;1.00;;
15764;SDS011;7983;50.744;7.086;2023-08-31T08:44:43;2.47;;;1.13;;
15764;SDS011;7983;50.744;7.086;2023-08-31T08:47:09;1.23;;;0.85;;
15764;SDS011;7983;50.744;7.086;2023-08-31T08:49:37;1.75;;;1.05;;
15764;SDS011;7983;50.744;7.086;2023-08-31T08:52:07;2.95;;;1.10;;
15764;SDS011;7983;50.744;7.086;2023-08-31T08:54:35;1.40;;;1.10;;
15764;SDS011;7983;50.744;7.086;2023-08-31T08:57:00;1.50;;;1.00;;
15764;SDS011;7983;50.744;7.086;2023-08-31T08:59:28;2.20;;;1.05;;
15764;SDS011;7983;50.744;7.086;2023-08-31T09:01:55;1.92;;;1.00;;
15764;SDS011;7983;50.744;7.086;2023-08-31T09:04:21;2.55;;;1.05;;
15764;SDS011;7983;50.744;7.086;2023-08-31T09:06:47;2.28;;;1.15;;
15764;SDS011;7983;50.744;7.086;2023-08-31T09:09:13;1.98;;;1.05;;
15764;SDS011;7983;50.744;7.086;2023-08-31T09:11:38;2.05;;;1.15;;
15764;SDS011;7983;50.744;7.086;2023-08-31T09:14:14;2.67;;;1.15;;
15764;SDS011;7983;50.744;7.086;2023-08-31T09:16:42;2.50;;;1.30;;
15764;SDS011;7983;50.744;7.086;2023-08-31T09:19:20;2.70;;;1.17;;
15764;SDS011;7983;50.744;7.086;2023-08-31T09:21:50;2.80;;;1.20;;
15764;SDS011;7983;50.744;7.086;2023-08-31T09:24:17;1.42;;;1.10;;
15764;SDS011;7983;50.744;7.086;2023-08-31T09:26:43;2.00;;;1.10;;
15764;SDS011;7983;50.744;7.086;2023-08-31T09:29:11;1.92;;;1.02;;
15764;SDS011;7983;50.744;7.086;2023-08-31T09:31:43;2.20;;;1.05;;
15764;SDS011;7983;50.744;7.086;2023-08-31T09:34:10;1.40;;;0.95;;
15764;SDS011;7983;50.744;7.086;2023-08-31T09:36:38;1.73;;;0.88;;
15764;SDS011;7983;50.744;7.086;2023-08-31T09:39:05;2.55;;;1.00;;
15764;SDS011;7983;50.744;7.086;2023-08-31T09:41:31;2.63;;;1.13;;
15764;SDS011;7983;50.744;7.086;2023-08-31T09:44:16;2.13;;;1.10;;
15764;SDS011;7983;50.744;7.086;2023-08-31T09:46:45;1.65;;;1.00;;
15764;SDS011;7983;50.744;7.086;2023-08-31T09:49:17;3.53;;;1.20;;
15764;SDS011;7983;50.744;7.086;2023-08-31T09:51:49;1.73;;;1.00;;
15764;SDS011;7983;50.744;7.086;2023-08-31T09:54:16;1.73;;;1.10;;
15764;SDS011;7983;50.744;7.086;2023-08-31T09:56:49;2.47;;;1.00;;
15764;SDS011;7983;50.744;7.086;2023-08-31T09:59:16;2.35;;;1.15;;
15764;SDS011;7983;50.744;7.086;2023-08-31T10:01:45;1.75;;;1.20;;
15764;SDS011;7983;50.744;7.086;2023-08-31T10:04:11;4.63;;;2.97;;
15764;SDS011;7983;50.744;7.086;2023-08-31T10:06:38;2.30;;;1.70;;
15764;SDS011;7983;50.744;7.086;2023-08-31T10:09:05;2.67;;;1.33;;
15764;SDS011;7983;50.744;7.086;2023-08-31T10:11:34;2.35;;;1.13;;
15764;SDS011;7983;50.744;7.086;2023-08-31T10:14:00;2.65;;;1.10;;
15764;SDS011;7983;50.744;7.086;2023-08-31T10:16:26;1.50;;;0.90;;
15764;SDS011;7983;50.744;7.086;2023-08-31T10:18:55;1.73;;;1.00;;
15764;SDS011;7983;50.744;7.086;2023-08-31T10:21:21;2.45;;;1.10;;
15764;SDS011;7983;50.744;7.086;2023-08-31T10:23:50;2.05;;;1.02;;
15764;SDS011;7983;50.744;7.086;2023-08-31T10:26:23;2.47;;;0.95;;
15764;SDS011;7983;50.744;7.086;2023-08-31T10:28:53;1.58;;;1.00;;
15764;SDS011;7983;50.744;7.086;2023-08-31T10:31:20;1.63;;;0.95;;
15764;SDS011;7983;50.744;7.086;2023-08-31T10:33:56;1.73;;;1.08;;
15764;SDS011;7983;50.744;7.086;2023-08-31T10:36:41;2.00;;;1.23;;
15764;SDS011;7983;50.744;7.086;2023-08-31T10:39:16;1.30;;;1.00;;
15764;SDS011;7983;50.744;7.086;2023-08-31T10:41:54;2.80;;;1.33;;
15764;SDS011;7983;50.744;7.086;2023-08-31T10:44:22;1.90;;;0.95;;
15764;SDS011;7983;50.744;7.086;2023-08-31T10:46:48;2.20;;;1.05;;
15764;SDS011;7983;50.744;7.086;2023-08-31T10:49:15;1.75;;;0.90;;
15764;SDS011;7983;50.744;7.086;2023-08-31T11:05:00;1.00;;;0.90;;
15764;SDS011;7983;50.744;7.086;2023-08-31T11:07:35;9.82;;;1.20;;
15764;SDS011;7983;50.744;7.086;2023-08-31T11:10:19;1.92;;;0.98;;
15764;SDS011;7983;50.744;7.086;2023-08-31T11:12:47;1.58;;;0.90;;
15764;SDS011;7983;50.744;7.086;2023-08-31T11:15:18;1.52;;;0.95;;
15764;SDS011;7983;50.744;7.086;2023-08-31T11:17:45;2.33;;;1.00;;
15764;SDS011;7983;50.744;7.086;2023-08-31T11:20:17;2.55;;;1.00;;
15764;SDS011;7983;50.744;7.086;2023-08-31T11:22:45;3.17;;;1.40;;
15764;SDS011;7983;50.744;7.086;2023-08-31T11:25:13;1.45;;;0.95;;
15764;SDS011;7983;50.744;7.086;2023-08-31T11:27:42;2.38;;;1.23;;
15764;SDS011;7983;50.744;7.086;2023-08-31T11:30:20;3.45;;;1.67;;
15764;SDS011;7983;50.744;7.086;2023-08-31T11:32:50;1.67;;;1.20;;
15764;SDS011;7983;50.744;7.086;2023-08-31T11:35:19;2.53;;;0.95;;
15764;SDS011;7983;50.744;7.086;2023-08-31T11:37:48;2.10;;;1.23;;
15764;SDS011;7983;50.744;7.086;2023-08-31T11:40:15;2.65;;;1.00;;
15764;SDS011;7983;50.744;7.086;2023-08-31T11:42:43;2.72;;;1.70;;
15764;SDS011;7983;50.744;7.086;2023-08-31T11:45:09;2.90;;;1.52;;
15764;SDS011;7983;50.744;7.086;2023-08-31T11:47:37;1.80;;;1.40;;
15764;SDS011;7983;50.744;7.086;2023-08-31T11:50:06;1.77;;;1.20;;
15764;SDS011;7983;50.744;7.086;2023-08-31T11:52:32;2.28;;;1.20;;
15764;SDS011;7983;50.744;7.086;2023-08-31T11:54:58;1.63;;;0.93;;
15764;SDS011;7983;50.744;7.086;2023-08-31T11:57:25;1.63;;;0.90;;
15764;SDS011;7983;50.744;7.086;2023-08-31T11:59:53;1.50;;;1.13;;
15764;SDS011;7983;50.744;7.086;2023-08-31T12:02:20;2.78;;;1.10;;
15764;SDS011;7983;50.744;7.086;2023-08-31T12:04:48;1.70;;;1.05;;
15764;SDS011;7983;50.744;7.086;2023-08-31T12:07:17;1.52;;;1.20;;
15764;SDS011;7983;50.744;7.086;2023-08-31T12:09:46;1.85;;;1.25;;
15764;SDS011;7983;50.744;7.086;2023-08-31T12:12:20;2.90;;;1.40;;
15764;SDS011;7983;50.744;7.086;2023-08-31T12:14:52;2.17;;;1.35;;
15764;SDS011;7983;50.744;7.086;2023-08-31T12:17:18;2.20;;;1.17;;
15764;SDS011;7983;50.744;7.086;2023-08-31T12:19:44;1.50;;;1.08;;
15764;SDS011;7983;50.744;7.086;2023-08-31T12:22:12;2.67;;;1.40;;
15764;SDS011;7983;50.744;7.086;2023-08-31T12:24:38;1.50;;;1.20;;
15764;SDS011;7983;50.744;7.086;2023-08-31T12:27:09;3.13;;;1.60;;
15764;SDS011;7983;50.744;7.086;2023-08-31T12:29:37;1.65;;;1.00;;
15764;SDS011;7983;50.744;7.086;2023-08-31T12:32:03;1.70;;;1.00;;
15764;SDS011;7983;50.744;7.086;2023-08-31T12:34:30;2.00;;;1.38;;
15764;SDS011;7983;50.744;7.086;2023-08-31T12:37:00;2.00;;;1.20;;
15764;SDS011;7983;50.744;7.086;2023-08-31T12:39:27;2.50;;;1.33;;
15764;SDS011;7983;50.744;7.086;2023-08-31T12:41:53;1.90;;;1.10;;
15764;SDS011;7983;50.744;7.086;2023-08-31T12:44:21;2.10;;;1.30;;
15764;SDS011;7983;50.744;7.086;2023-08-31T12:46:47;2.08;;;1.10;;
15764;SDS011;7983;50.744;7.086;2023-08-31T12:49:12;1.70;;;1.20;;
15764;SDS011;7983;50.744;7.086;2023-08-31T12:51:40;1.63;;;1.10;;
15764;SDS011;7983;50.744;7.086;2023-08-31T12:54:06;1.80;;;1.20;;
15764;SDS011;7983;50.744;7.086;2023-08-31T12:56:33;1.63;;;1.13;;
15764;SDS011;7983;50.744;7.086;2023-08-31T12:58:58;2.45;;;1.35;;
15764;SDS011;7983;50.744;7.086;2023-08-31T13:01:24;2.15;;;1.20;;
15764;SDS011;7983;50.744;7.086;2023-08-31T13:03:50;2.38;;;1.40;;
15764;SDS011;7983;50.744;7.086;2023-08-31T13:06:17;1.55;;;1.00;;
15764;SDS011;7983;50.744;7.086;2023-08-31T13:08:45;1.77;;;1.08;;
15764;SDS011;7983;50.744;7.086;2023-08-31T13:11:11;1.35;;;1.00;;
15764;SDS011;7983;50.744;7.086;2023-08-31T13:13:37;1.83;;;1.30;;
15764;SDS011;7983;50.744;7.086;2023-08-31T13:16:03;1.23;;;1.00;;
15764;SDS011;7983;50.744;7.086;2023-08-31T13:18:29;2.55;;;1.17;;
15764;SDS011;7983;50.744;7.086;2023-08-31T13:20:55;1.30;;;1.00;;
15764;SDS011;7983;50.744;7.086;2023-08-31T13:23:26;2.42;;;1.30;;
15764;SDS011;7983;50.744;7.086;2023-08-31T13:25:52;2.45;;;1.20;;
15764;SDS011;7983;50.744;7.086;2023-08-31T13:28:20;3.92;;;1.55;;
15764;SDS011;7983;50.744;7.086;2023-08-31T13:30:45;2.17;;;1.30;;
15764;SDS011;7983;50.744;7.086;2023-08-31T13:33:11;2.10;;;1.30;;
15764;SDS011;7983;50.744;7.086;2023-08-31T13:35:37;2.67;;;1.17;;
15764;SDS011;7983;50.744;7.086;2023-08-31T13:38:04;2.85;;;1.27;;
15764;SDS011;7983;50.744;7.086;2023-08-31T13:40:33;2.65;;;1.40;;
15764;SDS011;7983;50.744;7.086;2023-08-31T13:43:01;2.97;;;1.30;;
15764;SDS011;7983;50.744;7.086;2023-08-31T13:45:30;2.75;;;1.40;;
15764;SDS011;7983;50.744;7.086;2023-08-31T13:47:56;2.70;;;1.38;;
15764;SDS011;7983;50.744;7.086;2023-08-31T13:50:27;2.08;;;1.50;;
15764;SDS011;7983;50.744;7.086;2023-08-31T13:52:55;3.60;;;1.77;;
15764;SDS011;7983;50.744;7.086;2023-08-31T13:55:21;3.63;;;2.00;;
15764;SDS011;7983;50.744;7.086;2023-08-31T13:57:50;2.58;;;1.67;;
15764;SDS011;7983;50.744;7.086;2023-08-31T14:00:16;2.42;;;1.42;;
15764;SDS011;7983;50.744;7.086;2023-08-31T14:02:44;2.33;;;1.40;;
15764;SDS011;7983;50.744;7.086;2023-08-31T14:05:12;3.25;;;1.45;;
15764;SDS011;7983;50.744;7.086;2023-08-31T14:07:39;1.30;;;1.20;;
15764;SDS011;7983;50.744;7.086;2023-08-31T14:10:07;2.28;;;1.50;;
15764;SDS011;7983;50.744;7.086;2023-08-31T14:12:35;3.08;;;1.70;;
15764;SDS011;7983;50.744;7.086;2023-08-31T14:15:01;3.85;;;1.60;;
15764;SDS011;7983;50.744;7.086;2023-08-31T14:17:29;2.50;;;1.30;;
15764;SDS011;7983;50.744;7.086;2023-08-31T14:19:55;2.25;;;1.48;;
15764;SDS011;7983;50.744;7.086;2023-08-31T14:22:23;2.85;;;1.75;;
15764;SDS011;7983;50.744;7.086;2023-08-31T14:24:50;3.17;;;1.73;;
15764;SDS011;7983;50.744;7.086;2023-08-31T14:27:16;2.72;;;1.55;;
15764;SDS011;7983;50.744;7.086;2023-08-31T14:29:44;2.75;;;1.40;;
15764;SDS011;7983;50.744;7.086;2023-08-31T14:32:10;1.83;;;1.30;;
15764;SDS011;7983;50.744;7.086;2023-08-31T14:34:35;2.75;;;1.50;;
15764;SDS011;7983;50.744;7.086;2023-08-31T14:37:03;2.00;;;1.40;;
15764;SDS011;7983;50.744;7.086;2023-08-31T14:39:32;2.35;;;1.50;;
15764;SDS011;7983;50.744;7.086;2023-08-31T14:42:02;3.38;;;1.58;;
15764;SDS011;7983;50.744;7.086;2023-08-31T14:44:28;2.55;;;1.55;;
15764;SDS011;7983;50.744;7.086;2023-08-31T14:46:53;3.08;;;1.40;;
15764;SDS011;7983;50.744;7.086;2023-08-31T14:49:21;2.08;;;1.38;;
15764;SDS011;7983;50.744;7.086;2023-08-31T14:51:51;2.78;;;1.38;;
15764;SDS011;7983;50.744;7.086;2023-08-31T14:54:21;2.03;;;1.50;;
15764;SDS011;7983;50.744;7.086;2023-08-31T14:56:47;2.25;;;1.70;;
15764;SDS011;7983;50.744;7.086;2023-08-31T14:59:15;2.42;;;1.70;;
15764;SDS011;7983;50.744;7.086;2023-08-31T15:01:41;3.17;;;1.58;;
15764;SDS011;7983;50.744;7.086;2023-08-31T15:04:11;3.97;;;1.75;;
15764;SDS011;7983;50.744;7.086;2023-08-31T15:06:37;2.17;;;1.45;;
15764;SDS011;7983;50.744;7.086;2023-08-31T15:09:02;2.17;;;1.58;;
15764;SDS011;7983;50.744;7.086;2023-08-31T15:11:28;3.10;;;1.75;;
15764;SDS011;7983;50.744;7.086;2023-08-31T15:13:56;3.83;;;1.70;;
15764;SDS011;7983;50.744;7.086;2023-08-31T15:16:22;3.08;;;1.40;;
15764;SDS011;7983;50.744;7.086;2023-08-31T15:18:49;1.55;;;1.27;;
15764;SDS011;7983;50.744;7.086;2023-08-31T15:21:14;2.60;;;1.67;;
15764;SDS011;7983;50.744;7.086;2023-08-31T15:23:43;2.60;;;1.75;;
15764;SDS011;7983;50.744;7.086;2023-08-31T15:26:12;2.60;;;1.40;;
15764;SDS011;7983;50.744;7.086;2023-08-31T15:28:42;3.45;;;1.50;;
15764;SDS011;7983;50.744;7.086;2023-08-31T15:31:13;1.92;;;1.73;;